To NAV CANADA Home Page Login to a new session Search on AWWS site Feedback and Comments Disclaimer Vers la page française équivalente Tips FAQ What's new on the site To the Forecasts and Observations / NOTAM section To "File a Flight Plan" website Publications and other links Update of the User's profile FIC Telephone Numbers My Weather Data Folder Route Weather Data Regional Weather Data Local Weather Data To the Forecasts and Observations / NOTAM section
Request Generated 10/17/2017 at 01:46:41 UTC . Weather information available at that time is displayed.

METAR/TAF

SUDBURY/ON    

METAR CYSB 170100Z 20010KT 15SM FEW020 OVC150 04/01 A3010 RMK CF1AC7
SLP211=
METAR CYSB 170000Z 19010KT 15SM FEW060 04/00 A3011 RMK SC2 SLP215=
METAR CYSB 162300Z 19010KT 15SM SCT061 SCT100 06/M00 A3012 RMK SC3AC1
SLP216=

TAF CYSB 170138Z 1702/1714 20010KT P6SM SCT020 BKN150 TEMPO 1702/1714
BKN020
BECMG 1712/1714 22012G22KT
RMK NXT FCST BY 170800Z=
Your time UTC time
Weather data provided by Environment Canada and NAV CANADA